Historyczne dane pomiarowe

Dodano dane terminowe – wersja testowa.

Dane z okresu 1951-2019

Wersja bazy: 1.34 [2019-03-16, lista zmian], aktualizacja planowana na 2019-04-15

Dane meteo z obszaru Polski uzyskane na podstawie danych udostępnionych przez Instytut Meteorologii i Gospodarki Wodnej – Państwowy Instytut Badawczy.

 

Wybierz Datę:    

       

TemperaturaWilgotnośćWiatrCiśnienieOpadyŚniegCzas trwania zjawisk
 Stacja t tx tn tng RH VA  wxwx mslp ppp RRR   cm mm wxwxwxwxwxwxwx
1961-08-14 15.0 20.5 7.2 3.7 77.5- 6.0 0.3---- 0.4------------
1961-08-13 13.0 17.7 11.1 12.4 82.8- 6.0 2.7---- 0.0------------
1961-08-12 16.7 20.9 14.3 11.7 90.8- 8.0 1.3---- 8.4------------
1961-08-11 18.6 22.4 16.8 14.9 94.5- 6.7 1.7---- 15.6------------
1961-08-10 22.4 28.8 16.7 13.9 86.5- 6.0 1.7---- 1.0------------
1961-08-09 21.0 26.5 17.2 13.2 84.3- 6.7 0.7---- 4.2------------
1961-08-08 19.2 24.1 14.4 12.9 83.8- 5.3 1.7---- 0.0------------
1961-08-07 18.4 24.0 16.4 12.9 88.5- 8.0 1.7---- 9.8------------
1961-08-06 24.2 31.7 14.5 9.7 62.3- 2.0 1.0---- 5.5------------
1961-08-05 18.3 25.7 14.7 8.4 79.8- 4.0 1.0---- 0.0------------
1961-08-04 16.4 20.8 6.9 3.3 70.0- 4.7 1.0---- 0.0------------
1961-08-03 14.3 19.6 11.1 8.9 90.3- 5.3 1.7---- 0.0------------
1961-08-02 17.6 27.3 8.6 5.1 79.8- 4.7 1.3---- 2.3------------
1961-08-01 15.7 21.7 11.6 8.8 70.8- 3.7 2.0---- 0.0------------
1961-07-31 14.1 15.5 12.1 11.5 81.8- 7.3 4.7---- 3.0------------
1961-07-30 13.0 14.7 10.9 9.2 85.5- 8.0 2.3---- 0.1------------
1961-07-29 13.1 18.1 11.5 11.5 82.0- 8.0 3.3---- 0.0------------
1961-07-28 16.0 20.4 14.0 11.0 93.0- 8.0 1.3---- 22.4------------
1961-07-27 19.1 25.0 13.0 9.2 76.5- 8.0 2.7---- 3.2------------
1961-07-26 17.1 24.5 8.0 8.2 74.3- 5.7 1.0---- 0.0------------
1961-07-25 13.8 17.8 12.6 9.2 86.3- 7.7 0.7---- 0.0------------
1961-07-24 14.3 17.7 11.7 8.4 84.8- 6.7 1.0---- 0.0------------
1961-07-23 14.9 18.8 11.3 6.2 74.8- 7.3 1.0---- 0.0------------
1961-07-22 14.4 17.9 13.1 10.4 85.0- 8.0 2.3---- 0.5------------
1961-07-21 15.2 17.5 13.3 7.4 83.0- 7.7 2.3---- 0.8------------
1961-07-20 13.9 19.8 9.4 6.2 99.0- 7.7 0.7---- 9.7------------
1961-07-19 15.1 19.8 12.4 11.3 98.5- 7.3 1.7---- 5.4------------
1961-07-18 14.4 19.3 11.1 9.2 99.3- 7.7 1.0---- 8.1------------
1961-07-17 14.5 18.7 12.1 6.7100.0- 6.3 3.0---- 4.8------------
1961-07-16 16.7 22.3 13.2 12.9 99.0- 5.3 2.3---- 0.0------------
1961-07-15 19.8 24.1 13.0 10.8 99.5- 5.7 3.3---- 18.6------------
1961-07-14 15.7 21.2 13.3 12.2 99.3- 3.0 4.3---- 0.0------------
1961-07-13 19.3 26.4 14.9 13.8 79.5- 5.3 3.0---- 8.3------------
1961-07-12 21.8 28.2 10.0 10.5 72.0- 0.3 1.3---- 0.0------------
1961-07-11 16.6 24.3 5.4 2.3 77.8- 6.7 0.7---- 2.1------------
1961-07-10 12.8 18.4 9.7 8.2 77.5- 5.3 2.7---- 0.0------------
1961-07-09 14.5 17.9 8.6 5.7 76.3- 6.0 1.7---- 5.5------------
1961-07-08 16.4 22.5 5.9 3.0 62.3- 1.3 1.0---- 0.0------------
1961-07-07 13.3 17.8 11.5 3.6 98.8- 6.0 1.3---- 0.0------------
1961-07-06 13.4 16.6 8.0 6.6 99.3- 5.7 3.0---- 1.0------------
1961-07-05 13.3 18.3 11.0 11.3 99.8- 3.3 3.7---- 0.0------------
1961-07-04 20.2 28.2 16.6 17.4 81.8- 4.3 3.3---- 0.0------------
1961-07-03 24.4 32.5 14.6 9.6 58.5- 1.7 1.7---- 0.0------------
1961-07-02 21.2 30.1 11.7 8.6 63.3- 0.0 0.7---- 0.0------------
1961-07-01 21.6 28.0 10.3 6.8 65.5- 0.0 0.0---- 0.0------------
1961-06-30 19.1 25.3 9.0 6.8 70.0- 0.0 0.7---- 0.0------------
1961-06-29 16.5 22.1 8.7 6.1 73.8- 1.3 3.7---- 0.0------------
1961-06-28 14.3 21.2 12.5 12.5 66.8- 4.3 4.3---- 0.0------------
1961-06-27 22.7 30.2 17.6 12.5 71.3- 4.7 2.3---- 0.0------------
1961-06-26 21.5 27.4 15.3 12.7 75.0- 3.7 1.3---- 3.5------------
1961-06-25 23.4 29.7 17.0 9.3 57.3- 0.0 2.3---- 0.0------------
1961-06-24 20.0 24.9 14.1 11.9 68.3- 1.0 2.3---- 0.0------------
1961-06-23 18.6 24.5 15.1 13.3 74.0- 4.3 2.7---- 0.0------------
1961-06-22 19.2 26.8 7.7 5.3 71.5- 6.0 2.0---- 4.5------------
1961-06-21 16.7 24.1 6.2 6.9 66.3- 3.0 2.0---- 0.0------------
1961-06-20 14.5 19.6 9.4 4.6 67.0- 1.3 2.0---- 0.0------------
1961-06-19 15.8 21.4 13.8 11.8 85.8- 4.7 1.7---- 0.4------------
1961-06-18 20.5 27.2 10.6 7.7 64.3- 0.0 2.3---- 0.0------------
1961-06-17 16.4 22.7 6.9 5.1 72.0- 0.7 1.7---- 0.0------------
1961-06-16 14.0 19.2 7.8 6.6 72.0- 2.0 2.3---- 0.0------------
578.4 ms

 

Źródłem pochodzenia danych jest Instytut Meteorologii i Gospodarki Wodnej – Państwowy Instytut Badawczy. Dane Instytutu Meteorologii i Gospodarki Wodnej – Państwowego Instytutu Badawczego zostały przetworzone.

Dane źródłowe można odnaleźć na stronie https://dane.imgw.pl